Airfield :
LOGIN :

Register | Disclaimer

   EN    FR    IT 

 










Legend :    VFR   Marginal VFR   IFR   Intensive IFR   Very Intensive IFR
Visi :
Ceiling :
>= 8 km
>= 3000ft
5 to 8 km
1000 to 3000 ft
1500m to 5 km
500 to 1000 ft
800 to 1500m
200 to 500 ft
< 800m
< 200 ft
Symbols :   Thunderstorms  Fog  Heavy snow  Heavy precipitations  Wind > 20 kt
SIGMETs :     Misc.  Thunderstorms  Icing  Turbulence  Mountain Waves  Volcanic Ashes






- Airport Elevation : 913 ft


LFSX - Luxeuil

CURRENT METAR :
  • 232330Z AUTO 11006KT 3900 BR FEW010 OVC160 11/11 Q1012

EXPIRED METARs :
  • 232300Z AUTO 08003KT 5000 BR FEW014 OVC150 12/12 Q1012
  • 232230Z AUTO VRB03KT 7000 NSC 13/12 Q1012
  • 232200Z AUTO 12003KT 100V160 6000 BKN010 OVC150 13/12 Q1011
  • 232130Z AUTO 11006KT 6000 OVC010 13/12 Q1011
  • 232100Z AUTO 12006KT 6000 OVC008 13/12 Q1011

TAF TAF LFSX
Valid from the 23 at 15:00 until the 24 at 15:00 UTC


231400Z 2315/2415 12005KT CAVOK
TEMPO 2321/2406 3000 BR
PROB30
TEMPO 2322/2404 0800 BCFG



MET'MAP, your aeronautical weather chart ! - Copyright ORBIFLY December 2007 - Disclaimer

ORBIFLY MET'MAP TEAM :

Programming & Development : Alexandra Zaïnal
Concept & Development : Baudouin d'Aumeries
Co-Development & Prog : Marc-Olivier Méhu
Technical & hardware support : Manuel Goepfert

Contact : metmap@orbifly.com




SOURCES & CREDITS :

   NOAA